Accueil
METAR-TAF:

METAR-TAF

Aéroports :

Chièvres, Belgique

Base aérienne de Chièvres

latitude: 50-34N, longitude: 003-50E, altitude: 60 m

Observation

Le bulletin a été fait il y a 31 minutes, à 16:55 UTC
Vent 4 kt de sud
Température 16°C
Humidité 63%
Pression 1018 hPa
Visibilité 10 km ou plus

METAR: EBCV 211655Z AUTO 18004KT 9999 NCD 16/09 Q1018 BLU

Heure: 19:26 (17:26 UTC)

Prévision

Le bulletin a été fait il y a 5 heures et 45 minutes, à 11:41 UTC
Prévision valable du 21 à 13 UTC au 21 à 22 UTC
Vent 6 kt de sud/sud-est
Visibilité 10 km ou plus
Quelques nuages à une hauteur de 3000 ft
Nuages épars à une hauteur de 13000 ft
Temporairement
du 21 à 13 UTC au 21 à 16 UTC
Vent 8 kt de sud
Quelques nuages à une hauteur de 3000 ft
Nuages épars à une hauteur de 25000 ft

TAF: EBCV 211141Z 2113/2122 16006KT 9999 FEW030 SCT130 TEMPO 2113/2116 18008KT FEW030 SCT250 BY EBWM

Observations et prévisions météorologiques de plus de 4000 aéroports (messages METAR et TAF).

Les stations disponibles sont représentées par des disques jaunes et rouges sur la carte.

Passer la souris dessus pour voir le nom de la station.

Cliquer dessus pour voir les observations et prévisions météorologiques.

Pour changer de carte: cliquez sur les boutons verts avec une croix noire pour zoomer, sur le bouton vert avec un tiret pour effectuer un zoom arrière, ou sur les flèches vertes pour les cartes adjacentes.


METAR-TAF: